This is the latest recevied weather packets stored in our database for station/object XE2G-31. If no packets are shown the sender has not sent any weather packets the latest 1 day(s).
| Time | Temp. | Humidity | Pressure | Rain* | Wind** | Luminosity | Snow |
|---|---|---|---|---|---|---|---|
| 1778052186 | 24.44° C | 59% | 868 hPa | - | - | - | - |
| 1778051240 | 23.33° C | 66% | 868 hPa | - | - | - | - |
| 1778050293 | 24.44° C | 61% | 868 hPa | - | - | - | - |
| 1778049346 | 23.89° C | 66% | 869 hPa | - | - | - | - |
| 1778045559 | 25° C | 62% | 869 hPa | - | - | - | - |
| 1778044612 | 25° C | 61% | 869 hPa | - | - | - | - |
| 1778043665 | 25.56° C | 58% | 869 hPa | - | - | - | - |
| 1778042718 | 26.11° C | 57% | 869 hPa | - | - | - | - |
| 1778040825 | 26.67° C | 54% | 868 hPa | - | - | - | - |
| 1778039878 | 27.22° C | 53% | 868 hPa | - | - | - | - |
| 1778038931 | 27.22° C | 52% | 868 hPa | - | - | - | - |
| 1778037984 | 27.78° C | 51% | 868 hPa | - | - | - | - |
| 1778037037 | 28.33° C | 50% | 868 hPa | - | - | - | - |
| 1778036090 | 27.78° C | 50% | 868 hPa | - | - | - | - |
| 1778034197 | 28.89° C | 50% | 868 hPa | - | - | - | - |
| 1778033250 | 28.89° C | 48% | 868 hPa | - | - | - | - |
| 1778032303 | 27.78° C | 48% | 867 hPa | - | - | - | - |
| 1778031356 | 27.78° C | 49% | 867 hPa | - | - | - | - |
| 1778028516 | 28.89° C | 45% | 867 hPa | - | - | - | - |
| 1778027569 | 28.89° C | 45% | 867 hPa | - | - | - | - |
| 1778022835 | 31.11° C | 41% | 866 hPa | - | - | - | - |
| 1778021888 | 31.67° C | 42% | 866 hPa | - | - | - | - |
| 1778020941 | 31.67° C | 41% | 866 hPa | - | - | - | - |
| 1778019048 | 31.67° C | 43% | 866 hPa | - | - | - | - |
* Rain since midnight (hover to see other rain measurements)
** Current wind speed in m/s (hover to see current wind gust speed)